createdAt,value
2017-09-29T00:00:14.674Z,14.80
2017-09-29T00:02:42.293Z,15.18
2017-09-29T00:05:09.920Z,15.75
2017-09-29T00:07:37.515Z,16.27
2017-09-29T00:10:05.148Z,16.35
2017-09-29T00:12:32.818Z,15.32
2017-09-29T00:15:00.445Z,15.20
2017-09-29T00:17:28.815Z,16.23
2017-09-29T00:19:56.479Z,15.60
2017-09-29T00:22:24.139Z,15.60
2017-09-29T00:24:51.719Z,15.45
2017-09-29T00:27:19.340Z,17.20
2017-09-29T00:29:46.923Z,17.30
2017-09-29T00:32:14.512Z,17.70
2017-09-29T00:34:42.143Z,15.50
2017-09-29T00:37:09.777Z,17.33
2017-09-29T00:39:37.411Z,17.30
2017-09-29T00:42:05.048Z,16.30
2017-09-29T00:44:32.711Z,18.02
2017-09-29T00:47:01.106Z,16.70
2017-09-29T00:49:28.791Z,15.95
2017-09-29T00:51:56.401Z,15.23
2017-09-29T00:54:24.021Z,15.60
2017-09-29T00:56:51.638Z,15.90
2017-09-29T00:59:19.246Z,16.35
2017-09-29T01:01:46.834Z,16.20
2017-09-29T01:04:14.524Z,16.85
2017-09-29T01:06:42.971Z,16.17
2017-09-29T01:09:10.619Z,16.80
2017-09-29T01:11:38.197Z,16.30
2017-09-29T01:14:05.818Z,15.60
2017-09-29T01:16:33.475Z,16.60
2017-09-29T01:19:01.152Z,17.00
2017-09-29T01:21:28.819Z,16.75
2017-09-29T01:23:56.447Z,16.98
2017-09-29T01:26:24.090Z,16.50
2017-09-29T01:28:52.503Z,17.50
2017-09-29T01:31:20.127Z,17.33
2017-09-29T01:33:48.582Z,17.42
2017-09-29T01:36:16.258Z,18.25
2017-09-29T01:38:43.919Z,16.62
2017-09-29T01:41:11.554Z,16.15
2017-09-29T01:43:39.214Z,20.12
2017-09-29T01:46:06.858Z,17.48
2017-09-29T01:48:34.501Z,16.80
2017-09-29T01:51:02.092Z,15.73
2017-09-29T01:53:29.787Z,18.17
2017-09-29T01:55:57.426Z,17.20
2017-09-29T01:58:25.063Z,17.35
2017-09-29T02:00:52.852Z,17.80
2017-09-29T02:03:20.497Z,17.92
2017-09-29T02:05:48.130Z,17.00
2017-09-29T02:08:15.741Z,16.95
2017-09-29T02:10:43.322Z,17.33
2017-09-29T02:13:10.953Z,17.23
2017-09-29T02:15:38.582Z,18.95
2017-09-29T02:18:06.183Z,17.27
2017-09-29T02:20:33.834Z,17.10
2017-09-29T02:23:01.515Z,19.05
2017-09-29T02:25:29.143Z,17.48
2017-09-29T02:27:56.778Z,18.60
2017-09-29T02:30:25.185Z,18.67
2017-09-29T02:32:52.844Z,18.60
2017-09-29T02:35:20.490Z,19.50
2017-09-29T02:37:48.131Z,18.62
2017-09-29T02:40:16.546Z,20.10
2017-09-29T02:42:44.175Z,25.35
2017-09-29T02:45:12.575Z,19.80
2017-09-29T02:47:40.252Z,18.92
2017-09-29T02:50:07.917Z,20.30
2017-09-29T02:52:35.620Z,19.83
2017-09-29T02:55:03.270Z,20.75
2017-09-29T02:57:32.267Z,19.50
2017-09-29T03:00:02.315Z,19.05
2017-09-29T03:02:31.178Z,20.52
2017-09-29T03:05:00.375Z,20.33
2017-09-29T03:07:28.012Z,20.10
2017-09-29T03:09:55.695Z,21.62
2017-09-29T03:12:23.321Z,20.98
2017-09-29T03:14:50.935Z,21.92
2017-09-29T03:17:18.515Z,20.77
2017-09-29T03:19:46.906Z,20.60
2017-09-29T03:22:15.287Z,23.00
2017-09-29T03:24:42.863Z,22.33
2017-09-29T03:27:10.489Z,22.00
2017-09-29T03:29:38.107Z,22.27
2017-09-29T03:32:05.756Z,22.55
2017-09-29T03:34:33.405Z,23.10
2017-09-29T03:37:01.036Z,22.98
2017-09-29T03:39:28.702Z,23.60
2017-09-29T03:41:56.320Z,24.77
2017-09-29T03:44:23.955Z,22.90
2017-09-29T03:46:51.580Z,23.40
2017-09-29T03:49:20.007Z,22.52
2017-09-29T03:51:49.390Z,22.80
2017-09-29T03:54:17.358Z,23.85
2017-09-29T03:56:45.617Z,24.98
2017-09-29T03:59:13.656Z,25.05
2017-09-29T04:01:41.264Z,26.23
2017-09-29T04:04:08.895Z,26.58
2017-09-29T04:06:36.529Z,27.90
2017-09-29T04:09:04.170Z,27.92
2017-09-29T04:11:31.765Z,27.33
2017-09-29T04:13:59.355Z,27.52
2017-09-29T04:16:26.965Z,29.37
2017-09-29T04:18:54.598Z,29.37
2017-09-29T04:21:22.193Z,26.42
2017-09-29T04:23:49.769Z,27.37
2017-09-29T04:26:17.351Z,26.58
2017-09-29T04:28:44.929Z,30.92
2017-09-29T04:31:13.331Z,27.15
2017-09-29T04:33:40.916Z,27.83
2017-09-29T04:36:08.551Z,27.23
2017-09-29T04:38:36.140Z,29.40
2017-09-29T04:41:03.777Z,28.17
2017-09-29T04:43:31.397Z,28.40
2017-09-29T04:45:59.753Z,28.95
2017-09-29T04:48:27.334Z,27.73
2017-09-29T04:50:54.980Z,25.60
2017-09-29T04:53:22.606Z,28.30
2017-09-29T04:55:50.233Z,30.58
2017-09-29T04:58:18.684Z,33.83
2017-09-29T05:00:46.307Z,35.40
2017-09-29T05:03:13.952Z,33.85
2017-09-29T05:05:41.590Z,35.92
2017-09-29T05:08:09.984Z,39.80
2017-09-29T05:10:37.658Z,37.35
2017-09-29T05:13:05.261Z,32.40
2017-09-29T05:15:32.857Z,33.85
2017-09-29T05:18:01.250Z,31.52
2017-09-29T05:20:28.886Z,32.33
2017-09-29T05:22:56.512Z,32.55
2017-09-29T05:25:24.178Z,27.92
2017-09-29T05:27:51.799Z,28.42
2017-09-29T05:30:19.395Z,26.30
2017-09-29T05:32:47.014Z,25.65
2017-09-29T05:35:15.409Z,20.70
2017-09-29T05:37:43.043Z,19.75
2017-09-29T05:40:11.400Z,20.48
2017-09-29T05:42:38.940Z,20.52
2017-09-29T05:45:06.562Z,17.20
2017-09-29T05:47:34.186Z,18.58
2017-09-29T05:50:01.824Z,18.98
2017-09-29T05:52:29.486Z,16.12
2017-09-29T05:54:57.171Z,16.85
2017-09-29T05:57:24.797Z,17.02
2017-09-29T05:59:52.423Z,17.65
2017-09-29T06:02:20.064Z,16.48
2017-09-29T06:04:47.708Z,15.90
2017-09-29T06:07:15.326Z,15.15
2017-09-29T06:09:42.938Z,15.45
2017-09-29T06:12:10.554Z,39.30
2017-09-29T06:14:38.139Z,40.28
2017-09-29T06:17:05.766Z,23.45
2017-09-29T06:19:33.353Z,18.17
2017-09-29T06:22:00.987Z,17.08
2017-09-29T06:24:28.623Z,19.50
2017-09-29T06:26:56.252Z,17.08
2017-09-29T06:29:23.866Z,14.60
2017-09-29T06:31:51.495Z,13.60
2017-09-29T06:34:19.178Z,11.85
2017-09-29T06:36:46.807Z,13.53
2017-09-29T06:39:14.434Z,13.77
2017-09-29T06:41:42.053Z,13.73
2017-09-29T06:44:09.684Z,11.37
2017-09-29T06:46:37.315Z,11.60
2017-09-29T06:49:04.941Z,12.17
2017-09-29T06:51:32.571Z,14.70
2017-09-29T06:54:00.433Z,11.40
2017-09-29T06:56:28.046Z,10.50
2017-09-29T06:58:55.632Z,11.50
2017-09-29T07:01:23.251Z,12.10
2017-09-29T07:03:50.848Z,11.80
2017-09-29T07:06:18.476Z,12.47
2017-09-29T07:08:46.118Z,12.67
2017-09-29T07:11:13.767Z,12.70
2017-09-29T07:13:41.395Z,13.35
2017-09-29T07:16:09.014Z,13.05
2017-09-29T07:18:36.643Z,14.23
2017-09-29T07:21:04.275Z,13.70
2017-09-29T07:23:31.898Z,12.45
2017-09-29T07:26:01.719Z,13.13
2017-09-29T07:28:29.699Z,12.27
2017-09-29T07:30:58.572Z,12.35
2017-09-29T07:33:26.201Z,13.60
2017-09-29T07:35:53.830Z,13.35
2017-09-29T07:38:21.514Z,12.15
2017-09-29T07:40:49.211Z,12.18
2017-09-29T07:43:16.849Z,13.50
2017-09-29T07:45:44.500Z,12.68
2017-09-29T07:48:12.139Z,12.52
2017-09-29T07:50:39.758Z,12.80
2017-09-29T07:53:07.431Z,12.50
2017-09-29T07:55:35.838Z,12.05
2017-09-29T07:58:03.454Z,12.30
2017-09-29T08:00:31.085Z,12.20
2017-09-29T08:02:58.699Z,12.60
2017-09-29T08:05:27.043Z,13.75
2017-09-29T08:07:54.667Z,13.05
2017-09-29T08:10:22.282Z,11.48
2017-09-29T08:12:49.965Z,12.13
2017-09-29T08:15:17.544Z,11.80
2017-09-29T08:17:45.170Z,11.52
2017-09-29T08:20:12.784Z,11.32
2017-09-29T08:22:40.414Z,11.27
2017-09-29T08:25:08.038Z,10.00
2017-09-29T08:27:35.626Z,10.07
2017-09-29T08:30:04.028Z,10.20
2017-09-29T08:32:31.659Z,10.10
2017-09-29T08:35:00.099Z,9.38
2017-09-29T08:37:27.729Z,8.98
2017-09-29T08:39:55.352Z,9.93
2017-09-29T08:42:23.015Z,10.85
2017-09-29T08:44:50.640Z,9.73
2017-09-29T08:47:18.343Z,10.07
2017-09-29T08:49:45.974Z,10.02
2017-09-29T08:52:13.715Z,10.52
2017-09-29T08:54:41.359Z,10.45
2017-09-29T08:57:08.986Z,10.80
2017-09-29T08:59:36.627Z,10.13
2017-09-29T09:02:04.266Z,10.77
2017-09-29T09:04:31.895Z,10.20
2017-09-29T09:06:59.526Z,10.30
2017-09-29T09:09:27.155Z,10.17
2017-09-29T09:11:54.851Z,10.60
2017-09-29T09:14:22.486Z,9.63
2017-09-29T09:16:50.124Z,10.20
2017-09-29T09:19:17.762Z,9.50
2017-09-29T09:21:45.403Z,9.57
2017-09-29T09:24:13.038Z,9.50
2017-09-29T09:26:40.666Z,9.17
2017-09-29T09:29:08.294Z,10.63
2017-09-29T09:31:35.980Z,9.50
2017-09-29T09:34:03.606Z,9.80
2017-09-29T09:36:31.259Z,9.73
2017-09-29T09:39:00.087Z,10.87
2017-09-29T09:41:28.446Z,8.90
2017-09-29T09:43:56.131Z,9.20
2017-09-29T09:46:23.762Z,7.93
2017-09-29T09:48:51.370Z,8.20
2017-09-29T09:51:19.168Z,7.30
2017-09-29T09:53:46.794Z,7.90
2017-09-29T09:56:14.422Z,7.30
2017-09-29T09:58:42.037Z,6.83
2017-09-29T10:01:09.701Z,7.83
2017-09-29T10:03:37.281Z,7.67
2017-09-29T10:06:04.902Z,7.70
2017-09-29T10:08:32.518Z,7.20
2017-09-29T10:11:00.148Z,7.60
2017-09-29T10:13:27.771Z,8.57
2017-09-29T10:15:55.363Z,8.17
2017-09-29T10:18:23.034Z,7.53
2017-09-29T10:20:50.703Z,8.07
2017-09-29T10:23:18.316Z,7.70
2017-09-29T10:25:45.938Z,7.57
2017-09-29T10:28:13.583Z,7.37
2017-09-29T10:30:41.205Z,7.20
2017-09-29T10:33:08.825Z,8.27
2017-09-29T10:35:36.411Z,7.90
2017-09-29T10:38:04.034Z,7.90
2017-09-29T10:40:31.714Z,7.80
2017-09-29T10:42:59.531Z,7.40
2017-09-29T10:45:27.142Z,7.30
2017-09-29T10:47:54.766Z,7.30
2017-09-29T10:50:22.397Z,7.87
2017-09-29T10:52:50.866Z,7.87
2017-09-29T10:55:19.257Z,7.27
2017-09-29T10:57:47.603Z,7.97
2017-09-29T11:00:15.230Z,8.10
2017-09-29T11:02:42.816Z,7.70
2017-09-29T11:05:10.449Z,7.60
2017-09-29T11:07:38.064Z,7.70
2017-09-29T11:10:05.653Z,8.20
2017-09-29T11:12:33.236Z,7.43
2017-09-29T11:15:00.910Z,8.17
2017-09-29T11:17:28.536Z,7.87
2017-09-29T11:19:56.118Z,8.83
2017-09-29T11:22:23.691Z,7.97
2017-09-29T11:24:51.314Z,7.70
2017-09-29T11:27:18.929Z,7.33
2017-09-29T11:29:46.550Z,7.07
2017-09-29T11:32:14.146Z,7.83
2017-09-29T11:34:41.732Z,8.20
2017-09-29T11:37:09.364Z,7.93
2017-09-29T11:39:36.995Z,7.90
2017-09-29T11:42:04.573Z,7.50
2017-09-29T11:44:32.156Z,7.60
2017-09-29T11:46:59.796Z,7.33
2017-09-29T11:49:27.426Z,8.50
2017-09-29T11:51:55.045Z,8.70
2017-09-29T11:54:22.630Z,9.03
2017-09-29T11:56:51.014Z,9.20
2017-09-29T11:59:18.609Z,9.63
2017-09-29T12:01:46.239Z,10.50
2017-09-29T12:04:13.887Z,9.30
2017-09-29T12:06:41.526Z,9.93
2017-09-29T12:09:09.143Z,9.55
2017-09-29T12:11:36.810Z,9.48
2017-09-29T12:14:04.438Z,9.60
2017-09-29T12:16:32.792Z,9.25
2017-09-29T12:19:00.430Z,9.70
2017-09-29T12:21:28.022Z,9.25
2017-09-29T12:23:55.621Z,9.55
2017-09-29T12:26:23.247Z,10.02
2017-09-29T12:28:50.866Z,9.45
2017-09-29T12:31:18.485Z,9.45
2017-09-29T12:33:46.110Z,9.60
2017-09-29T12:36:13.728Z,9.60
2017-09-29T12:38:41.763Z,10.20
2017-09-29T12:41:16.634Z,9.15
2017-09-29T12:43:44.380Z,8.75
2017-09-29T12:46:12.002Z,9.35
2017-09-29T12:48:39.613Z,9.75
2017-09-29T12:51:07.254Z,9.60
2017-09-29T12:53:35.654Z,9.70
2017-09-29T12:56:03.278Z,9.48
2017-09-29T12:58:30.958Z,9.85
2017-09-29T13:00:59.348Z,10.32
2017-09-29T13:03:26.956Z,10.25
2017-09-29T13:05:54.581Z,10.18
2017-09-29T13:08:22.242Z,10.75
2017-09-29T13:10:49.871Z,9.80
2017-09-29T13:13:17.451Z,9.48
2017-09-29T13:15:45.883Z,8.75
2017-09-29T13:18:13.497Z,9.23
2017-09-29T13:20:41.131Z,8.98
2017-09-29T13:23:08.750Z,8.43
2017-09-29T13:25:36.369Z,8.90
2017-09-29T13:28:03.990Z,8.73
2017-09-29T13:30:31.626Z,8.70
2017-09-29T13:32:59.249Z,9.10
2017-09-29T13:35:27.661Z,9.82
2017-09-29T13:37:55.292Z,10.30
2017-09-29T13:40:23.779Z,9.20
2017-09-29T13:42:51.402Z,8.85
2017-09-29T13:45:19.023Z,9.15
2017-09-29T13:47:46.645Z,9.05
2017-09-29T13:50:14.242Z,9.38
2017-09-29T13:52:41.895Z,8.77
2017-09-29T13:55:09.502Z,9.07
2017-09-29T13:57:37.088Z,9.52
2017-09-29T14:00:04.725Z,9.07
2017-09-29T14:02:32.348Z,9.60
2017-09-29T14:04:59.932Z,8.82
2017-09-29T14:07:27.556Z,9.45
2017-09-29T14:09:55.186Z,8.80
2017-09-29T14:12:22.826Z,8.55
2017-09-29T14:14:50.454Z,9.25
2017-09-29T14:17:18.037Z,9.07
2017-09-29T14:19:45.615Z,9.73
2017-09-29T14:22:13.193Z,8.25
2017-09-29T14:24:40.802Z,9.10
2017-09-29T14:27:08.378Z,9.60
2017-09-29T14:29:36.013Z,9.95
2017-09-29T14:32:03.583Z,9.85
2017-09-29T14:34:31.229Z,8.60
2017-09-29T14:36:59.639Z,10.43
2017-09-29T14:39:27.353Z,9.00
2017-09-29T14:41:54.976Z,9.90
2017-09-29T14:44:22.561Z,9.10
2017-09-29T14:46:50.306Z,9.98
2017-09-29T14:49:17.941Z,8.75
2017-09-29T14:51:45.557Z,10.95
2017-09-29T14:54:13.355Z,10.02
2017-09-29T14:56:40.970Z,9.45
2017-09-29T14:59:08.577Z,9.57
2017-09-29T15:01:36.189Z,9.27
2017-09-29T15:04:03.818Z,9.50
2017-09-29T15:06:31.442Z,9.45
2017-09-29T15:08:59.059Z,9.68
2017-09-29T15:11:26.675Z,11.15
2017-09-29T15:13:54.297Z,10.15
2017-09-29T15:16:21.914Z,10.63
2017-09-29T15:18:49.573Z,11.20
2017-09-29T15:21:17.362Z,9.38
2017-09-29T15:23:45.479Z,9.85
2017-09-29T15:26:13.114Z,10.35
2017-09-29T15:28:41.037Z,10.00
2017-09-29T15:31:08.667Z,11.27
2017-09-29T15:33:36.286Z,10.05
2017-09-29T15:36:03.915Z,10.40
2017-09-29T15:38:31.530Z,10.30
2017-09-29T15:41:00.194Z,10.40
2017-09-29T15:43:27.763Z,10.50
2017-09-29T15:45:55.418Z,9.38
2017-09-29T15:48:23.032Z,10.15
2017-09-29T15:50:50.942Z,10.55
2017-09-29T15:53:18.551Z,9.55
2017-09-29T15:55:46.174Z,9.90
2017-09-29T15:58:13.762Z,8.70
2017-09-29T16:00:41.377Z,9.90
2017-09-29T16:03:09.011Z,10.48
2017-09-29T16:05:36.630Z,10.48
2017-09-29T16:08:04.212Z,9.93
2017-09-29T16:10:31.833Z,9.10
2017-09-29T16:12:59.441Z,10.30
2017-09-29T16:15:27.016Z,10.30
2017-09-29T16:17:55.404Z,10.90
2017-09-29T16:20:23.032Z,10.98
2017-09-29T16:22:50.604Z,11.05
2017-09-29T16:25:18.229Z,10.93
2017-09-29T16:27:45.886Z,10.35
2017-09-29T16:30:13.498Z,9.55
2017-09-29T16:32:41.852Z,10.70
2017-09-29T16:35:09.481Z,11.48
2017-09-29T16:37:37.098Z,10.88
2017-09-29T16:40:05.473Z,10.90
2017-09-29T16:42:33.099Z,10.50
2017-09-29T16:45:00.713Z,12.18
2017-09-29T16:47:28.973Z,10.90
2017-09-29T16:49:57.359Z,10.60
2017-09-29T16:52:25.169Z,11.43
2017-09-29T16:54:52.751Z,12.30
2017-09-29T16:57:20.361Z,11.77
2017-09-29T16:59:48.026Z,13.13
2017-09-29T17:02:15.882Z,13.48
2017-09-29T17:04:44.300Z,13.10
2017-09-29T17:07:12.091Z,15.10
2017-09-29T17:09:39.672Z,16.30
2017-09-29T17:12:07.433Z,17.50
2017-09-29T17:14:37.159Z,20.62
2017-09-29T17:17:05.547Z,20.33
2017-09-29T17:19:33.294Z,18.65
2017-09-29T17:22:01.698Z,21.40
2017-09-29T17:24:29.245Z,22.92
2017-09-29T17:26:56.913Z,23.55
2017-09-29T17:29:24.545Z,23.00
2017-09-29T17:31:52.173Z,24.75
2017-09-29T17:34:20.092Z,26.23
2017-09-29T17:36:47.987Z,26.02
2017-09-29T17:39:16.450Z,23.70
2017-09-29T17:44:27.579Z,25.48
2017-09-29T17:46:56.276Z,28.48
2017-09-29T17:49:23.938Z,33.85
2017-09-29T17:51:52.210Z,32.20
2017-09-29T17:54:19.794Z,33.03
2017-09-29T17:59:46.761Z,36.35
2017-09-29T18:02:14.604Z,35.00
2017-09-29T18:04:42.492Z,34.70
2017-09-29T18:07:10.448Z,35.70
2017-09-29T18:09:42.609Z,32.80
2017-09-29T18:12:11.034Z,33.80
2017-09-29T18:14:39.716Z,31.65
2017-09-29T18:17:19.527Z,31.23
2017-09-29T18:19:53.675Z,31.95
2017-09-29T18:22:21.483Z,30.67
2017-09-29T18:24:49.107Z,29.90
2017-09-29T18:27:16.694Z,28.33
2017-09-29T18:29:44.435Z,28.38
2017-09-29T18:32:12.814Z,27.23
2017-09-29T18:34:40.438Z,28.65
2017-09-29T18:37:08.070Z,29.37
2017-09-29T18:39:35.655Z,27.58
2017-09-29T18:42:04.466Z,27.48
2017-09-29T18:44:37.846Z,26.37
2017-09-29T18:47:11.185Z,24.30
2017-09-29T18:49:38.910Z,24.27
2017-09-29T18:52:06.539Z,21.87
2017-09-29T18:54:34.361Z,21.50
2017-09-29T18:57:02.173Z,16.75
2017-09-29T18:59:29.810Z,17.35
2017-09-29T19:01:57.490Z,17.40
2017-09-29T19:04:25.113Z,17.00
2017-09-29T19:06:53.515Z,16.20
2017-09-29T19:09:21.352Z,16.92
2017-09-29T19:11:48.955Z,16.12
2017-09-29T19:14:16.557Z,15.95
2017-09-29T19:16:44.214Z,16.75
2017-09-29T19:19:11.866Z,16.67
2017-09-29T19:21:39.471Z,17.27
2017-09-29T19:24:07.856Z,18.15
2017-09-29T19:26:36.207Z,18.20
2017-09-29T19:29:04.742Z,17.87
2017-09-29T19:31:32.369Z,17.50
2017-09-29T19:34:00.780Z,18.08
2017-09-29T19:36:28.456Z,17.10
2017-09-29T19:38:56.098Z,17.30
2017-09-29T19:41:23.776Z,17.62
2017-09-29T19:43:51.396Z,17.27
2017-09-29T19:46:21.534Z,18.60
2017-09-29T19:48:50.390Z,18.75
2017-09-29T19:51:18.021Z,17.50
2017-09-29T19:53:46.453Z,17.33
2017-09-29T19:56:14.894Z,18.30
2017-09-29T19:58:42.766Z,16.73
2017-09-29T20:01:21.560Z,17.83
2017-09-29T20:03:49.183Z,16.98
2017-09-29T20:06:16.781Z,15.98
2017-09-29T20:08:44.790Z,16.75
2017-09-29T20:11:12.612Z,17.67
2017-09-29T20:13:40.247Z,15.75
2017-09-29T20:16:07.843Z,16.52
2017-09-29T20:18:35.478Z,15.70
2017-09-29T20:21:03.073Z,16.70
2017-09-29T20:23:30.665Z,17.00
2017-09-29T20:25:58.278Z,16.00
2017-09-29T20:28:25.918Z,15.63
2017-09-29T20:30:53.530Z,15.45
2017-09-29T20:33:21.203Z,15.48
2017-09-29T20:35:48.855Z,15.95
2017-09-29T20:38:16.492Z,17.50
2017-09-29T20:40:44.196Z,16.35
2017-09-29T20:43:11.824Z,16.10
2017-09-29T20:45:39.420Z,15.93
2017-09-29T20:48:07.008Z,16.45
2017-09-29T20:50:35.411Z,17.23
2017-09-29T20:53:03.001Z,16.02
2017-09-29T20:55:30.588Z,15.70
2017-09-29T20:57:58.259Z,16.17
2017-09-29T21:00:26.702Z,16.20
2017-09-29T21:02:54.326Z,16.77
2017-09-29T21:05:21.911Z,15.48
2017-09-29T21:07:49.555Z,17.40
2017-09-29T21:10:17.474Z,17.40
2017-09-29T21:12:45.114Z,16.15
2017-09-29T21:15:12.704Z,16.45
2017-09-29T21:17:40.421Z,17.08
2017-09-29T21:20:08.005Z,16.80
2017-09-29T21:22:35.699Z,17.98
2017-09-29T21:25:04.057Z,17.65
2017-09-29T21:27:31.659Z,16.30
2017-09-29T21:29:59.308Z,17.40
2017-09-29T21:32:26.944Z,18.08
2017-09-29T21:34:54.590Z,16.58
2017-09-29T21:37:22.183Z,16.67
2017-09-29T21:39:50.570Z,17.35
2017-09-29T21:42:18.988Z,17.73
2017-09-29T21:44:46.621Z,17.40
2017-09-29T21:47:14.266Z,18.58
2017-09-29T21:49:42.654Z,17.30
2017-09-29T21:52:10.299Z,18.45
2017-09-29T21:54:37.931Z,17.67
2017-09-29T21:57:05.565Z,17.67
2017-09-29T21:59:33.198Z,18.37
2017-09-29T22:02:00.828Z,17.60
2017-09-29T22:04:28.416Z,18.05
2017-09-29T22:06:56.810Z,18.92
2017-09-29T22:09:24.455Z,17.70
2017-09-29T22:11:52.076Z,16.90
2017-09-29T22:14:19.710Z,18.52
2017-09-29T22:16:47.332Z,19.62
2017-09-29T22:19:14.955Z,18.27
2017-09-29T22:21:42.605Z,17.17
2017-09-29T22:24:10.217Z,18.42
2017-09-29T22:26:37.838Z,18.45
2017-09-29T22:29:05.470Z,19.05
2017-09-29T22:31:33.097Z,18.00
2017-09-29T22:34:00.718Z,18.65
2017-09-29T22:36:28.311Z,19.02
2017-09-29T22:38:56.010Z,18.02
2017-09-29T22:41:23.629Z,19.52
2017-09-29T22:43:51.254Z,18.87
2017-09-29T22:46:18.809Z,19.05
2017-09-29T22:48:46.435Z,18.10
2017-09-29T22:51:14.847Z,19.67
2017-09-29T22:53:42.475Z,18.77
2017-09-29T22:56:10.065Z,17.87
2017-09-29T22:58:37.697Z,18.27
2017-09-29T23:01:06.139Z,18.85
2017-09-29T23:03:33.755Z,18.62
2017-09-29T23:06:01.315Z,18.85
2017-09-29T23:08:28.912Z,18.60
2017-09-29T23:10:56.542Z,17.30
2017-09-29T23:13:24.123Z,17.92
2017-09-29T23:15:51.708Z,19.48
2017-09-29T23:18:19.334Z,19.20
2017-09-29T23:20:46.974Z,17.92
2017-09-29T23:23:14.591Z,18.50
2017-09-29T23:25:42.228Z,18.73
2017-09-29T23:28:09.823Z,18.85
2017-09-29T23:30:37.463Z,18.37
2017-09-29T23:33:05.040Z,18.77
2017-09-29T23:35:32.671Z,18.15
2017-09-29T23:38:01.036Z,17.50
2017-09-29T23:40:28.662Z,20.08
2017-09-29T23:42:56.255Z,17.83
2017-09-29T23:45:23.885Z,18.73
2017-09-29T23:47:51.506Z,19.02
2017-09-29T23:50:19.079Z,19.05
2017-09-29T23:52:46.659Z,17.87
2017-09-29T23:55:14.212Z,18.05
2017-09-29T23:57:41.793Z,18.12
